createdAt,value
2023-04-06T00:00:39.147Z,49.49
2023-04-06T00:03:07.723Z,49.12
2023-04-06T00:05:36.386Z,49.51
2023-04-06T00:08:05.006Z,49.37
2023-04-06T00:10:33.712Z,50.04
2023-04-06T00:13:02.226Z,50.49
2023-04-06T00:15:32.076Z,49.92
2023-04-06T00:18:00.680Z,50.57
2023-04-06T00:20:29.154Z,50.36
2023-04-06T00:22:57.637Z,50.17
2023-04-06T00:25:26.158Z,50.37
2023-04-06T00:27:54.622Z,51.15
2023-04-06T00:30:23.295Z,51.04
2023-04-06T00:32:53.245Z,50.75
2023-04-06T00:35:21.901Z,50.84
2023-04-06T00:37:50.365Z,51.24
2023-04-06T00:40:19.142Z,51.52
2023-04-06T00:42:47.550Z,52.08
2023-04-06T00:45:16.084Z,51.44
2023-04-06T00:47:45.564Z,51.24
2023-04-06T00:50:15.640Z,51.25
2023-04-06T00:52:44.217Z,52.26
2023-04-06T00:55:12.922Z,51.78
2023-04-06T00:57:44.454Z,51.92
2023-04-06T01:00:17.622Z,52.27
2023-04-06T01:02:49.360Z,52.00
2023-04-06T01:05:23.277Z,51.60
2023-04-06T01:07:58.775Z,52.02
2023-04-06T01:10:31.063Z,52.61
2023-04-06T01:13:06.278Z,52.64
2023-04-06T01:15:58.201Z,51.16
2023-04-06T01:18:33.582Z,51.76
2023-04-06T01:21:26.447Z,52.40
2023-04-06T01:24:15.244Z,53.49
2023-04-06T01:27:03.228Z,53.93
2023-04-06T01:30:01.079Z,54.08
2023-04-06T01:33:05.287Z,53.51
2023-04-06T01:35:46.662Z,53.84
2023-04-06T01:38:18.692Z,52.99
2023-04-06T01:40:51.516Z,53.60
2023-04-06T01:43:23.044Z,53.63
2023-04-06T01:46:02.385Z,53.63
2023-04-06T01:48:36.258Z,53.83
2023-04-06T01:51:13.791Z,53.96
2023-04-06T01:53:50.597Z,53.42
2023-04-06T01:56:23.312Z,54.23
2023-04-06T01:59:00.546Z,54.86
2023-04-06T02:01:34.677Z,54.89
2023-04-06T02:04:03.206Z,54.57
2023-04-06T02:06:31.819Z,55.05
2023-04-06T02:09:01.577Z,54.75
2023-04-06T02:11:32.603Z,53.91
2023-04-06T02:14:02.236Z,54.32
2023-04-06T02:16:34.089Z,54.91
2023-04-06T02:19:02.743Z,55.58
2023-04-06T02:21:31.096Z,55.31
2023-04-06T02:24:00.756Z,56.07
2023-04-06T02:26:29.253Z,56.14
2023-04-06T02:28:59.199Z,56.29
2023-04-06T02:31:28.044Z,56.37
2023-04-06T02:33:56.673Z,55.71
2023-04-06T02:36:25.871Z,55.75
2023-04-06T02:38:54.383Z,55.10
2023-04-06T02:41:22.797Z,54.18
2023-04-06T02:43:52.019Z,54.00
2023-04-06T02:46:32.119Z,53.75
2023-04-06T02:49:01.658Z,53.13
2023-04-06T02:51:33.182Z,53.54
2023-04-06T02:54:13.246Z,54.76
2023-04-06T02:56:41.833Z,55.72
2023-04-06T02:59:11.051Z,55.67
2023-04-06T03:01:41.780Z,55.63
2023-04-06T03:04:10.268Z,55.29
2023-04-06T03:06:38.980Z,53.96
2023-04-06T03:09:17.408Z,53.74
2023-04-06T03:11:47.808Z,54.12
2023-04-06T03:14:18.415Z,53.60
2023-04-06T03:16:48.350Z,54.56
2023-04-06T03:19:20.528Z,54.27
2023-04-06T03:21:49.517Z,55.09
2023-04-06T03:24:19.423Z,55.59
2023-04-06T03:26:47.869Z,56.02
2023-04-06T03:29:16.424Z,56.25
2023-04-06T03:31:45.022Z,55.65
2023-04-06T03:34:41.752Z,55.54
2023-04-06T03:37:11.096Z,56.33
2023-04-06T03:39:46.583Z,56.30
2023-04-06T03:42:20.068Z,57.32
2023-04-06T03:44:54.094Z,57.30
2023-04-06T03:47:22.931Z,57.55
2023-04-06T03:49:54.834Z,57.59
2023-04-06T03:52:24.156Z,57.99
2023-04-06T03:54:54.031Z,57.57
2023-04-06T03:57:22.565Z,57.25
2023-04-06T03:59:50.949Z,57.55
2023-04-06T04:02:19.567Z,58.40
2023-04-06T04:04:48.278Z,58.60
2023-04-06T04:07:18.262Z,58.97
2023-04-06T04:09:46.731Z,58.46
2023-04-06T04:12:17.794Z,57.46
2023-04-06T04:14:46.347Z,57.65
2023-04-06T04:17:14.871Z,57.30
2023-04-06T04:19:43.356Z,57.04
2023-04-06T04:22:12.185Z,57.33
2023-04-06T04:24:43.926Z,57.11
2023-04-06T04:27:12.778Z,56.85
2023-04-06T04:29:42.368Z,56.65
2023-04-06T04:32:13.340Z,56.74
2023-04-06T04:34:42.034Z,56.67
2023-04-06T04:37:15.601Z,56.87
2023-04-06T04:39:58.016Z,56.82
2023-04-06T04:42:26.673Z,56.56
2023-04-06T04:44:58.641Z,55.96
2023-04-06T04:47:39.699Z,55.80
2023-04-06T04:50:10.077Z,56.08
2023-04-06T04:52:41.763Z,56.50
2023-04-06T04:55:19.344Z,56.32
2023-04-06T04:57:50.902Z,56.37
2023-04-06T05:00:23.600Z,56.32
2023-04-06T05:02:53.594Z,56.53
2023-04-06T05:05:26.635Z,56.57
2023-04-06T05:07:56.631Z,57.35
2023-04-06T05:10:58.720Z,57.76
2023-04-06T05:13:28.896Z,57.64
2023-04-06T05:15:58.171Z,57.63
2023-04-06T05:18:32.793Z,58.00
2023-04-06T05:21:02.479Z,57.91
2023-04-06T05:23:42.392Z,57.67
2023-04-06T05:26:12.376Z,57.44
2023-04-06T05:28:43.711Z,57.94
2023-04-06T05:31:12.588Z,57.28
2023-04-06T05:33:48.260Z,58.37
2023-04-06T05:36:18.529Z,58.44
2023-04-06T05:38:49.178Z,57.73
2023-04-06T05:41:31.323Z,58.18
2023-04-06T05:43:59.861Z,58.17
2023-04-06T05:46:29.095Z,58.58
2023-04-06T05:49:00.778Z,58.50
2023-04-06T05:51:32.936Z,58.60
2023-04-06T05:54:02.025Z,58.59
2023-04-06T05:56:32.967Z,58.50
2023-04-06T05:59:03.183Z,58.89
2023-04-06T06:01:32.678Z,57.93
2023-04-06T06:04:03.383Z,57.51
2023-04-06T06:06:34.431Z,56.96
2023-04-06T06:09:29.157Z,56.16
2023-04-06T06:12:07.830Z,56.12
2023-04-06T06:14:36.982Z,56.46
2023-04-06T06:17:05.444Z,56.45
2023-04-06T06:19:34.130Z,56.40
2023-04-06T06:22:06.494Z,56.15
2023-04-06T06:24:38.486Z,55.53
2023-04-06T06:27:08.902Z,55.58
2023-04-06T06:29:40.747Z,55.47
2023-04-06T06:32:10.135Z,54.58
2023-04-06T06:34:39.783Z,54.38
2023-04-06T06:37:09.882Z,53.72
2023-04-06T06:39:39.924Z,54.08
2023-04-06T06:42:09.813Z,52.79
2023-04-06T06:45:09.619Z,52.22
2023-04-06T06:47:38.299Z,51.43
2023-04-06T06:50:08.307Z,49.74
2023-04-06T06:52:37.005Z,49.79
2023-04-06T06:55:05.761Z,49.40
2023-04-06T06:57:35.622Z,50.28
2023-04-06T07:00:06.382Z,49.72
2023-04-06T07:02:36.911Z,49.55
2023-04-06T07:05:16.079Z,48.67
2023-04-06T07:07:52.936Z,48.00
2023-04-06T07:10:22.578Z,46.46
2023-04-06T07:12:52.524Z,45.26
2023-04-06T07:15:21.032Z,44.70
2023-04-06T07:17:49.650Z,45.22
2023-04-06T07:20:18.527Z,44.57
2023-04-06T07:22:47.098Z,45.08
2023-04-06T07:25:15.692Z,43.04
2023-04-06T07:27:44.247Z,42.67
2023-04-06T07:30:15.500Z,43.42
2023-04-06T07:32:44.439Z,43.00
2023-04-06T07:35:13.167Z,43.42
2023-04-06T07:37:43.427Z,42.43
2023-04-06T07:40:12.610Z,42.61
2023-04-06T07:42:42.400Z,42.67
2023-04-06T07:45:12.526Z,43.73
2023-04-06T07:47:42.535Z,43.08
2023-04-06T07:50:12.385Z,42.96
2023-04-06T07:52:41.038Z,43.13
2023-04-06T07:55:10.978Z,41.96
2023-04-06T07:57:39.573Z,41.36
2023-04-06T08:00:10.664Z,41.29
2023-04-06T08:02:43.441Z,41.37
2023-04-06T08:05:12.266Z,42.46
2023-04-06T08:07:40.851Z,42.40
2023-04-06T08:10:09.877Z,41.78
2023-04-06T08:12:38.326Z,41.81
2023-04-06T08:15:07.807Z,41.41
2023-04-06T08:17:36.343Z,41.13
2023-04-06T08:20:07.045Z,41.21
2023-04-06T08:22:35.591Z,41.39
2023-04-06T08:25:04.096Z,41.47
2023-04-06T08:27:32.683Z,41.46
2023-04-06T08:30:01.167Z,40.60
2023-04-06T08:32:29.699Z,39.40
2023-04-06T08:34:58.453Z,39.19
2023-04-06T08:37:30.096Z,38.86
2023-04-06T08:40:00.284Z,38.70
2023-04-06T08:42:34.264Z,37.99
2023-04-06T08:45:03.176Z,39.28
2023-04-06T08:47:31.873Z,38.38
2023-04-06T08:50:02.824Z,38.84
2023-04-06T08:52:34.510Z,37.82
2023-04-06T08:55:03.100Z,36.79
2023-04-06T08:57:33.216Z,34.59
2023-04-06T09:00:03.734Z,34.56
2023-04-06T09:02:32.273Z,33.80
2023-04-06T09:05:02.698Z,32.89
2023-04-06T09:07:32.824Z,33.92
2023-04-06T09:10:01.240Z,34.87
2023-04-06T09:12:31.150Z,33.75
2023-04-06T09:15:00.727Z,33.89
2023-04-06T09:17:31.128Z,32.73
2023-04-06T09:19:59.835Z,33.24
2023-04-06T09:22:30.624Z,31.06
2023-04-06T09:25:00.532Z,30.18
2023-04-06T09:27:36.528Z,30.25
2023-04-06T09:30:07.009Z,30.07
2023-04-06T09:32:46.023Z,29.48
2023-04-06T09:35:15.075Z,29.55
2023-04-06T09:37:44.019Z,29.16
2023-04-06T09:40:15.972Z,29.31
2023-04-06T09:42:45.294Z,28.78
2023-04-06T09:45:15.552Z,28.76
2023-04-06T09:47:46.979Z,28.21
2023-04-06T09:50:17.452Z,27.29
2023-04-06T09:52:50.648Z,27.59
2023-04-06T09:55:26.893Z,27.60
2023-04-06T09:58:00.489Z,28.04
2023-04-06T10:00:30.008Z,28.54
2023-04-06T10:03:07.039Z,27.47
2023-04-06T10:05:44.593Z,27.28
2023-04-06T10:08:13.972Z,26.82
2023-04-06T10:10:45.459Z,25.91
2023-04-06T10:13:14.436Z,26.49
2023-04-06T10:15:44.341Z,26.99
2023-04-06T10:18:13.464Z,26.06
2023-04-06T10:20:46.023Z,25.63
2023-04-06T10:23:22.028Z,25.81
2023-04-06T10:25:59.269Z,26.32
2023-04-06T10:28:28.469Z,25.89
2023-04-06T10:31:00.487Z,25.99
2023-04-06T10:33:29.973Z,25.37
2023-04-06T10:35:58.758Z,25.57
2023-04-06T10:38:39.793Z,25.22
2023-04-06T10:41:13.194Z,24.75
2023-04-06T10:43:42.936Z,24.18
2023-04-06T10:46:12.777Z,24.83
2023-04-06T10:48:42.574Z,24.09
2023-04-06T10:51:13.390Z,23.77
2023-04-06T10:53:44.843Z,23.95
2023-04-06T10:56:16.266Z,23.89
2023-04-06T10:58:48.768Z,22.74
2023-04-06T11:01:18.586Z,23.10
2023-04-06T11:03:47.562Z,23.73
2023-04-06T11:06:23.352Z,23.32
2023-04-06T11:08:52.386Z,22.34
2023-04-06T11:11:24.876Z,22.88
2023-04-06T11:13:54.731Z,23.03
2023-04-06T11:16:24.074Z,22.29
2023-04-06T11:18:55.262Z,22.44
2023-04-06T11:21:34.771Z,22.20
2023-04-06T11:24:08.161Z,22.87
2023-04-06T11:26:41.809Z,22.13
2023-04-06T11:29:10.652Z,21.65
2023-04-06T11:31:47.844Z,21.26
2023-04-06T11:34:19.438Z,22.53
2023-04-06T11:36:49.585Z,23.38
2023-04-06T11:39:22.429Z,22.93
2023-04-06T11:41:53.438Z,22.30
2023-04-06T11:44:34.212Z,21.60
2023-04-06T11:47:03.789Z,21.23
2023-04-06T11:49:33.381Z,21.77
2023-04-06T11:52:03.071Z,22.09
2023-04-06T11:54:36.338Z,22.41
2023-04-06T11:57:07.344Z,22.90
2023-04-06T11:59:36.228Z,23.00
2023-04-06T12:02:05.274Z,22.95
2023-04-06T12:04:34.296Z,22.73
2023-04-06T12:07:03.169Z,22.14
2023-04-06T12:09:32.064Z,21.71
2023-04-06T12:12:00.551Z,21.08
2023-04-06T12:14:31.895Z,22.17
2023-04-06T12:17:00.576Z,22.89
2023-04-06T12:19:30.425Z,22.97
2023-04-06T12:21:59.922Z,22.88
2023-04-06T12:24:30.346Z,23.06
2023-04-06T12:27:09.117Z,22.70
2023-04-06T12:29:40.738Z,22.13
2023-04-06T12:32:09.634Z,21.87
2023-04-06T12:34:38.154Z,22.27
2023-04-06T12:37:06.676Z,22.33
2023-04-06T12:39:35.489Z,21.69
2023-04-06T12:42:04.136Z,21.59
2023-04-06T12:44:32.610Z,23.19
2023-04-06T12:47:02.631Z,24.68
2023-04-06T12:49:32.096Z,24.46
2023-04-06T12:52:00.815Z,25.43
2023-04-06T12:54:30.165Z,26.13
2023-04-06T12:56:58.816Z,27.25
2023-04-06T12:59:27.692Z,27.48
2023-04-06T13:01:56.295Z,27.74
2023-04-06T13:04:27.456Z,27.53
2023-04-06T13:06:56.033Z,28.18
2023-04-06T13:09:24.519Z,27.87
2023-04-06T13:11:53.048Z,27.35
2023-04-06T13:14:22.100Z,28.01
2023-04-06T13:16:52.389Z,27.38
2023-04-06T13:19:21.013Z,27.36
2023-04-06T13:21:51.116Z,27.64
2023-04-06T13:24:20.802Z,27.22
2023-04-06T13:26:49.282Z,27.60
2023-04-06T13:29:17.771Z,28.01
2023-04-06T13:31:46.424Z,28.31
2023-04-06T13:34:14.914Z,28.49
2023-04-06T13:36:44.050Z,28.46
2023-04-06T13:39:14.070Z,28.30
2023-04-06T13:41:42.589Z,28.33
2023-04-06T13:44:11.114Z,28.24
2023-04-06T13:46:39.582Z,28.38
2023-04-06T13:49:08.109Z,28.92
2023-04-06T13:51:36.647Z,28.75
2023-04-06T13:54:05.180Z,27.92
2023-04-06T13:56:35.010Z,28.28
2023-04-06T13:59:05.208Z,28.07
2023-04-06T14:01:33.751Z,28.14
2023-04-06T14:04:02.344Z,28.35
2023-04-06T14:06:32.216Z,28.61
2023-04-06T14:09:00.926Z,27.86
2023-04-06T14:11:29.353Z,28.78
2023-04-06T14:14:00.266Z,29.06
2023-04-06T14:16:28.732Z,29.47
2023-04-06T14:18:58.912Z,29.48
2023-04-06T14:21:27.691Z,29.88
2023-04-06T14:23:58.050Z,29.73
2023-04-06T14:26:28.712Z,29.68
2023-04-06T14:28:57.398Z,29.82
2023-04-06T14:31:27.490Z,30.16
2023-04-06T14:33:56.183Z,29.85
2023-04-06T14:36:24.992Z,30.31
2023-04-06T14:38:53.510Z,29.93
2023-04-06T14:41:24.344Z,30.26
2023-04-06T14:43:53.817Z,29.81
2023-04-06T14:46:22.640Z,29.90
2023-04-06T14:48:53.162Z,29.75
2023-04-06T14:51:21.743Z,29.54
2023-04-06T14:53:50.172Z,29.73
2023-04-06T14:56:23.222Z,29.79
2023-04-06T14:58:51.967Z,30.14
2023-04-06T15:01:21.942Z,29.66
2023-04-06T15:03:50.853Z,29.60
2023-04-06T15:06:22.558Z,29.19
2023-04-06T15:08:52.155Z,29.44
2023-04-06T15:11:21.228Z,30.20
2023-04-06T15:13:49.623Z,29.48
2023-04-06T15:16:18.092Z,29.99
2023-04-06T15:18:46.656Z,30.96
2023-04-06T15:21:15.118Z,30.89
2023-04-06T15:23:45.048Z,30.45
2023-04-06T15:26:13.515Z,29.21
2023-04-06T15:28:42.295Z,29.28
2023-04-06T15:31:28.190Z,29.76
2023-04-06T15:34:04.950Z,29.51
2023-04-06T15:36:33.477Z,30.09
2023-04-06T15:39:04.702Z,30.11
2023-04-06T15:41:33.500Z,29.64
2023-04-06T15:44:01.822Z,28.43
2023-04-06T15:46:30.231Z,28.22
2023-04-06T15:48:58.873Z,28.51
2023-04-06T15:51:30.315Z,28.39
2023-04-06T15:53:59.516Z,28.21
2023-04-06T15:56:29.298Z,28.38
2023-04-06T15:58:57.757Z,29.00
2023-04-06T16:01:26.247Z,29.25
2023-04-06T16:03:54.911Z,29.41
2023-04-06T16:06:23.295Z,30.25
2023-04-06T16:08:51.747Z,30.36
2023-04-06T16:11:20.188Z,30.61
2023-04-06T16:13:55.262Z,30.93
2023-04-06T16:16:25.355Z,31.26
2023-04-06T16:18:53.773Z,31.66
2023-04-06T16:21:22.219Z,31.95
2023-04-06T16:23:50.758Z,31.92
2023-04-06T16:26:19.393Z,31.57
2023-04-06T16:28:49.562Z,32.06
2023-04-06T16:31:22.350Z,31.97
2023-04-06T16:33:51.503Z,32.35
2023-04-06T16:36:24.287Z,32.48
2023-04-06T16:38:53.080Z,32.79
2023-04-06T16:41:22.318Z,32.62
2023-04-06T16:43:52.152Z,33.39
2023-04-06T16:46:20.677Z,34.18
2023-04-06T16:48:49.092Z,34.36
2023-04-06T16:51:18.932Z,34.41
2023-04-06T16:53:48.344Z,34.88
2023-04-06T16:56:16.815Z,34.57
2023-04-06T16:58:45.733Z,34.66
2023-04-06T17:01:21.431Z,34.84
2023-04-06T17:03:50.859Z,35.00
2023-04-06T17:06:19.973Z,35.15
2023-04-06T17:08:49.658Z,35.34
2023-04-06T17:11:23.489Z,35.51
2023-04-06T17:13:56.587Z,35.42
2023-04-06T17:16:28.567Z,35.51
2023-04-06T17:18:58.285Z,35.56
2023-04-06T17:21:26.683Z,35.77
2023-04-06T17:23:55.747Z,36.25
2023-04-06T17:26:24.181Z,36.98
2023-04-06T17:28:52.593Z,37.32
2023-04-06T17:31:21.043Z,37.76
2023-04-06T17:33:51.212Z,38.03
2023-04-06T17:36:20.646Z,38.43
2023-04-06T17:38:50.208Z,38.38
2023-04-06T17:41:18.679Z,38.67
2023-04-06T17:43:48.358Z,38.91
2023-04-06T17:46:17.110Z,39.06
2023-04-06T17:48:47.054Z,39.34
2023-04-06T17:51:19.597Z,39.45
2023-04-06T17:53:49.609Z,39.79
2023-04-06T17:56:18.196Z,40.04
2023-04-06T17:58:46.672Z,40.09
2023-04-06T18:01:15.268Z,40.39
2023-04-06T18:03:43.719Z,40.94
2023-04-06T18:06:13.503Z,41.25
2023-04-06T18:08:43.753Z,41.33
2023-04-06T18:11:18.527Z,41.58
2023-04-06T18:13:47.341Z,41.97
2023-04-06T18:16:17.392Z,42.20
2023-04-06T18:18:46.182Z,42.55
2023-04-06T18:21:14.728Z,43.11
2023-04-06T18:23:44.631Z,43.45
2023-04-06T18:26:18.562Z,43.92
2023-04-06T18:28:47.341Z,44.21
2023-04-06T18:31:15.919Z,44.05
2023-04-06T18:33:44.510Z,44.09
2023-04-06T18:36:14.558Z,44.43
2023-04-06T18:38:46.210Z,44.33
2023-04-06T18:41:14.783Z,45.02
2023-04-06T18:43:43.303Z,45.42
2023-04-06T18:46:13.640Z,45.85
2023-04-06T18:48:42.208Z,46.13
2023-04-06T18:51:10.840Z,46.49
2023-04-06T18:53:40.089Z,46.84
2023-04-06T18:56:17.578Z,47.24
2023-04-06T18:58:48.526Z,47.81
2023-04-06T19:01:24.459Z,47.55
2023-04-06T19:03:54.107Z,48.35
2023-04-06T19:06:22.803Z,48.97
2023-04-06T19:08:51.352Z,49.20
2023-04-06T19:11:23.292Z,49.50
2023-04-06T19:13:51.963Z,49.49
2023-04-06T19:16:21.414Z,49.69
2023-04-06T19:18:49.900Z,49.94
2023-04-06T19:21:18.506Z,50.20
2023-04-06T19:23:48.018Z,50.23
2023-04-06T19:26:17.152Z,50.28
2023-04-06T19:28:47.700Z,50.60
2023-04-06T19:31:19.366Z,50.68
2023-04-06T19:33:48.758Z,50.66
2023-04-06T19:36:17.397Z,50.70
2023-04-06T19:38:45.989Z,51.20
2023-04-06T19:41:14.369Z,51.32
2023-04-06T19:43:42.750Z,51.57
2023-04-06T19:46:13.996Z,52.02
2023-04-06T19:48:42.477Z,52.52
2023-04-06T19:51:11.861Z,53.05
2023-04-06T19:53:41.963Z,53.66
2023-04-06T19:56:11.446Z,54.18
2023-04-06T19:58:41.241Z,54.29
2023-04-06T20:01:12.238Z,54.44
2023-04-06T20:03:41.481Z,54.66
2023-04-06T20:06:10.126Z,54.74
2023-04-06T20:08:40.643Z,55.01
2023-04-06T20:11:10.728Z,55.14
2023-04-06T20:13:40.549Z,55.18
2023-04-06T20:16:10.095Z,54.87
2023-04-06T20:18:40.297Z,54.13
2023-04-06T20:21:09.763Z,54.50
2023-04-06T20:23:39.383Z,55.21
2023-04-06T20:26:10.672Z,55.10
2023-04-06T20:28:40.965Z,55.86
2023-04-06T20:31:09.480Z,55.89
2023-04-06T20:33:42.483Z,56.35
2023-04-06T20:36:12.789Z,55.60
2023-04-06T20:38:41.744Z,54.81
2023-04-06T20:41:11.180Z,55.69
2023-04-06T20:43:39.878Z,56.63
2023-04-06T20:46:16.472Z,56.83
2023-04-06T20:48:46.422Z,57.11
2023-04-06T20:51:20.684Z,57.80
2023-04-06T20:53:49.104Z,57.54
2023-04-06T20:56:18.459Z,56.85
2023-04-06T20:58:46.876Z,57.83
2023-04-06T21:01:15.866Z,57.57
2023-04-06T21:03:47.062Z,57.01
2023-04-06T21:06:15.875Z,56.62
2023-04-06T21:08:44.266Z,56.82
2023-04-06T21:11:13.021Z,57.75
2023-04-06T21:13:41.732Z,57.70
2023-04-06T21:16:10.494Z,57.29
2023-04-06T21:18:40.706Z,57.04
2023-04-06T21:21:10.792Z,58.11
2023-04-06T21:23:40.752Z,57.48
2023-04-06T21:26:09.152Z,57.81
2023-04-06T21:28:37.667Z,57.67
2023-04-06T21:31:08.902Z,57.84
2023-04-06T21:33:37.482Z,58.38
2023-04-06T21:36:07.206Z,58.75
2023-04-06T21:38:37.139Z,59.48
2023-04-06T21:41:06.652Z,59.27
2023-04-06T21:43:35.796Z,58.90
2023-04-06T21:46:04.412Z,59.57
2023-04-06T21:48:33.864Z,60.00
2023-04-06T21:51:02.996Z,60.46
2023-04-06T21:53:31.641Z,60.45
2023-04-06T21:56:02.757Z,59.47
2023-04-06T21:58:31.214Z,59.98
2023-04-06T22:01:01.406Z,59.97
2023-04-06T22:03:30.236Z,60.33
2023-04-06T22:05:59.662Z,60.53
2023-04-06T22:08:33.624Z,60.61
2023-04-06T22:11:09.124Z,60.51
2023-04-06T22:13:38.317Z,60.61
2023-04-06T22:16:07.850Z,61.35
2023-04-06T22:18:38.856Z,61.13
2023-04-06T22:21:08.091Z,61.03
2023-04-06T22:23:42.267Z,61.75
2023-04-06T22:26:13.202Z,61.39
2023-04-06T22:28:42.413Z,61.66
2023-04-06T22:31:10.895Z,61.69
2023-04-06T22:33:39.666Z,61.39
2023-04-06T22:36:08.642Z,61.52
2023-04-06T22:38:37.186Z,61.67
2023-04-06T22:41:07.180Z,61.25
2023-04-06T22:43:39.053Z,61.01
2023-04-06T22:46:09.120Z,61.14
2023-04-06T22:48:46.881Z,61.61
2023-04-06T22:51:20.843Z,61.73
2023-04-06T22:53:51.462Z,61.87
2023-04-06T22:56:21.609Z,62.09
2023-04-06T22:58:51.810Z,62.89
2023-04-06T23:01:20.231Z,62.59
2023-04-06T23:03:48.766Z,62.57
2023-04-06T23:06:17.378Z,62.71
2023-04-06T23:08:47.188Z,62.52
2023-04-06T23:11:15.642Z,62.85
2023-04-06T23:13:44.043Z,62.95
2023-04-06T23:16:13.907Z,62.98
2023-04-06T23:18:42.328Z,63.32
2023-04-06T23:21:10.782Z,63.25
2023-04-06T23:23:39.385Z,63.00
2023-04-06T23:26:08.172Z,62.82
2023-04-06T23:28:37.584Z,62.99
2023-04-06T23:31:06.174Z,62.73
2023-04-06T23:33:36.103Z,61.74
2023-04-06T23:36:04.618Z,61.73
2023-04-06T23:38:33.063Z,61.29
2023-04-06T23:41:01.523Z,61.09
2023-04-06T23:43:29.871Z,61.20
2023-04-06T23:45:58.338Z,62.09
2023-04-06T23:48:26.863Z,62.37
2023-04-06T23:50:56.722Z,62.35
2023-04-06T23:53:25.157Z,62.55
2023-04-06T23:55:53.683Z,62.67
2023-04-06T23:58:22.131Z,62.85
